Flight Track Log - Related Links

Times and Time Zones

All times are in EST time to prevent confusion due to time zone crossing. See the ASQ5874 flight status page for this flight to view local times or setup timezone preferences in your user account.

Time Position Orientation Groundspeed Altitude Reporting Facility
EST Latitude Longitude Course Direction KTS MPH feet Rate Location/Type
Sun 02:46:46 PM 41.9500 -87.9667 176° South 188 216 2,900  Level Chicago TRACON
Sun 02:47:46 PM 41.9167 -88.0167 228° Southwest 247 284 4,900 2,377 Climbing Chicago TRACON
Sun 02:48:32 PM 41.8542 -88.0067 173° South 273 314 7,100 2,778 Climbing Chicago Center
Sun 02:49:00 PM 41.5532 -87.8106 180° South  Level Estimated
Sun 02:49:34 PM 41.7781 -87.9828 167° South 279 321 9,900  Level Chicago Center
Sun 02:50:00 PM 41.4467 -87.7866 180° South  Level Estimated
Sun 02:50:36 PM 41.6964 -87.9603 168° South 297 342 12,200  Level Chicago Center
Sun 02:51:00 PM 41.3397 -87.8068 188° South  Level FlightAware Approximate
Sun 02:51:38 PM 41.6103 -87.9350 168° South 313 360 14,500  Level Chicago Center
Sun 02:52:00 PM 41.2413 -87.7839 176° South  Level Estimated
Sun 02:52:41 PM 41.5211 -87.9089 168° South 324 373 16,000  Level Chicago Center
Sun 02:53:43 PM 41.4164 -87.8811 169° South 371 427 16,800 968 Climbing Chicago Center
Sun 02:54:45 PM 41.3067 -87.8889 183° South 388 447 18,000 1,161 Climbing Chicago Center
Sun 02:55:47 PM 41.1703 -87.8917 181° South 403 464 19,200 1,065 Climbing Chicago Center
Sun 02:56:49 PM 41.0528 -87.8872 178° South 419 482 20,200 1,016 Climbing Chicago Center
Sun 02:57:51 PM 40.9331 -87.8825 178° South 428 493 21,300 1,065 Climbing Chicago Center
Sun 02:58:53 PM 40.8142 -87.8797 179° South 427 491 22,400 1,065 Climbing Chicago Center
Sun 02:59:55 PM 40.6939 -87.8767 179° South 431 496 23,500 1,113 Climbing Chicago Center
Sun 03:00:57 PM 40.5497 -87.8703 178° South 432 497 24,700 968 Climbing Chicago Center
Sun 03:01:59 PM 40.4289 -87.8667 179° South 435 501 25,500 720 Climbing Chicago Center
Sun 03:03:02 PM 40.3069 -87.8622 178° South 437 503 26,200 672 Climbing Chicago Center
Sun 03:04:04 PM 40.1850 -87.8567 178° South 440 506 26,900 706 Climbing Chicago Center
Sun 03:05:01 PM 40.0597 -87.8531 179° South 442 509 27,600 706 Climbing Indianapolis Center
Sun 03:06:03 PM 39.9378 -87.8481 178° South 442 509 28,300 581 Climbing Indianapolis Center
Sun 03:07:05 PM 39.8158 -87.8419 178° South 441 507 28,800 339 Climbing Indianapolis Center
Sun 03:08:07 PM 39.6922 -87.8381 179° South 445 512 29,000 97 Climbing Indianapolis Center
Sun 03:09:09 PM 39.5394 -87.8314 178° South 457 526 29,000  Level Indianapolis Center
Sun 03:10:11 PM 39.4122 -87.8264 178° South 460 529 29,000  Level Indianapolis Center
Sun 03:11:14 PM 39.2936 -87.8194 177° South 460 529 29,000  Level Indianapolis Center
Sun 03:12:16 PM 39.1433 -87.8142 178° South 449 517 29,000  Level Indianapolis Center
Sun 03:13:18 PM 39.0233 -87.8086 178° South 436 502 29,000  Level Indianapolis Center
Sun 03:14:20 PM 38.9019 -87.8025 178° South 434 499 29,000  Level Indianapolis Center
Sun 03:15:22 PM 38.7803 -87.7981 178° South 437 503 29,000  Level Indianapolis Center
Sun 03:16:24 PM 38.6575 -87.7936 178° South 441 507 29,000 -532 Level Indianapolis Center
Sun 03:17:26 PM 38.5344 -87.7886 178° South 442 509 27,900 -1,645 Descending Indianapolis Center
Sun 03:18:28 PM 38.3872 -87.7819 178° South 442 509 25,600 -1,694 Descending Indianapolis Center
Sun 03:19:30 PM 38.2681 -87.7769 178° South 433 498 24,400 -1,065 Descending Indianapolis Center
Sun 03:20:32 PM 38.1550 -87.7722 178° South 412 474 23,400 -677 Descending Indianapolis Center
Sun 03:21:34 PM 38.0436 -87.7667 178° South 403 464 23,000 -194 Descending Indianapolis Center
Sun 03:22:36 PM 37.9333 -87.7586 177° South 400 460 23,000  Level Indianapolis Center
Sun 03:23:38 PM 37.8358 -87.6803 148° Southeast 416 479 23,000  Level Indianapolis Center
Sun 03:24:40 PM 37.7339 -87.5881 144° Southeast 416 479 23,000  Level Indianapolis Center
Sun 03:25:43 PM 37.6383 -87.5033 145° Southeast 415 478 23,000  Level Indianapolis Center
Sun 03:26:45 PM 37.5264 -87.4042 145° Southeast 417 480 23,000  Level Indianapolis Center
Sun 03:27:47 PM 37.4294 -87.3183 145° Southeast 422 486 23,000  Level Indianapolis Center
Sun 03:28:49 PM 37.3283 -87.2489 151° Southeast 415 478 23,000  Level Indianapolis Center
Sun 03:29:51 PM 37.2164 -87.2156 167° South 410 472 23,000 -726 Level Indianapolis Center
Sun 03:30:53 PM 37.1031 -87.1839 167° South 412 474 21,500 -1,642 Descending Indianapolis Center
Sun 03:31:37 PM 37.0250 -87.1589 166° South 419 482 20,100 -2,217 Descending Memphis Center
Sun 03:31:39 PM 37.0086 -87.1556 171° South 428 493 19,800 -3,188 Descending Memphis Center
Sun 03:32:09 PM 36.9419 -87.1361 167° South 436 502 18,400 -2,500 Descending Memphis Center
Sun 03:32:39 PM 36.8869 -87.1194 166° South 430 495 17,300 -2,164 Descending Memphis Center
Sun 03:33:10 PM 36.8317 -87.1031 167° South 423 487 16,200 -2,032 Descending Memphis Center
Sun 03:33:41 PM 36.7786 -87.0758 158° South 409 471 15,200 -2,194 Descending Memphis Center
Sun 03:34:43 PM 36.6778 -87.0133 154° Southeast 401 461 12,800 -2,208 Descending Memphis Center
Sun 03:35:46 PM 36.5817 -86.9542 154° Southeast 389 448 10,600 -1,584 Descending Memphis Center
Sun 03:36:48 PM 36.5108 -86.8950 146° Southeast 321 369 9,500 -1,790 Descending Memphis Center
Sun 03:37:50 PM 36.4722 -86.8028 117° Southeast 297 342 6,900 -2,081 Descending Memphis Center
Sun 03:38:52 PM 36.4144 -86.7458 142° Southeast 273 314 5,200 -1,742 Descending Memphis Center
Sun 03:39:54 PM 36.3422 -86.7183 163° South 264 304 3,300 -1,548 Descending Memphis Center
Sun 03:40:56 PM 36.2722 -86.6908 162° South 260 299 2,000 -726 Descending Memphis Center
Sun 03:41:58 PM 36.2064 -86.6681 164° South 251 289 1,800 -532 Descending Memphis Center
Sun 03:43:00 PM 36.1561 -86.6708 183° South 174 200 900 -532 Descending Memphis Center
Sun 03:44:02 PM 36.1272 -86.6817 197° South 156 180 700 -194 Descending Memphis Center

Login

Don't have an account? Register now (free) for customized features, flight alerts, and more!